Wetterdaten: Woche 09.05.11 - 15.05.11 (KW19)
Datum Zeit Temp. Innen Temp. Aussen UV X Diff Temp. Feuchte Inne Feuchte Auss Sonnenschein Luftdruck Regen ab 0,1 Wind Sonnenschein T Regendauer Windben
09.05.2011 00:00 23,7 C 20,1 C 0,1 UV-I 0,0 C 39 % 38 % 0 % 1020,0 hPa 0,0 l/m 1,1 km/h (1 Bft) 0,00 h 0,00 h 1,1 km/h (1 Bft)
09.05.2011 01:00 23,5 C 18,2 C 0,0 UV-I 0,0 C 40 % 45 % 0 % 1020,3 hPa 0,0 l/m 0,2 km/h (0 Bft) 0,00 h 0,00 h 0,0 km/h (0 Bft)
09.05.2011 02:00 23,2 C 17,4 C 0,0 UV-I 0,0 C 40 % 47 % 0 % 1020,3 hPa 0,0 l/m 0,2 km/h (0 Bft) 0,00 h 0,00 h 1,0 km/h (0 Bft)
09.05.2011 03:00 23,0 C 17,7 C 0,0 UV-I 0,0 C 40 % 44 % 0 % 1020,7 hPa 0,0 l/m 5,4 km/h (1 Bft) 0,00 h 0,00 h 7,7 km/h (2 Bft)
09.05.2011 04:00 22,8 C 17,8 C 0,0 UV-I 0,0 C 40 % 45 % 0 % 1020,9 hPa 0,0 l/m 7,8 km/h (2 Bft) 0,00 h 0,00 h 8,9 km/h (2 Bft)
09.05.2011 05:00 22,8 C 18,2 C 0,1 UV-I 0,0 C 40 % 48 % 0 % 1021,3 hPa 0,0 l/m 8,9 km/h (2 Bft) 0,00 h 0,00 h 9,6 km/h (2 Bft)
09.05.2011 06:00 22,8 C 18,2 C 0,2 UV-I 0,0 C 41 % 49 % 0 % 1021,6 hPa 0,0 l/m 10,0 km/h (2 Bft) 0,00 h 0,00 h 12,3 km/h (3 Bft)
09.05.2011 07:00 22,8 C 18,3 C 0,6 UV-I 0,0 C 41 % 50 % 1 % 1022,1 hPa 0,0 l/m 9,5 km/h (2 Bft) 0,00 h 0,00 h 10,5 km/h (2 Bft)
09.05.2011 08:00 22,8 C 18,4 C 0,9 UV-I 0,1 C 41 % 50 % 3 % 1022,6 hPa 0,0 l/m 12,0 km/h (2 Bft) 0,00 h 0,00 h 12,9 km/h (3 Bft)
09.05.2011 09:00 22,9 C 19,0 C 2,3 UV-I 1,3 C 41 % 50 % 38 % 1022,9 hPa 0,0 l/m 10,9 km/h (2 Bft) 0,10 h 0,00 h 11,7 km/h (2 Bft)
09.05.2011 10:00 23,1 C 20,9 C 5,2 UV-I 3,7 C 41 % 46 % 88 % 1023,2 hPa 0,0 l/m 11,4 km/h (2 Bft) 0,67 h 0,00 h 13,1 km/h (3 Bft)
09.05.2011 11:00 23,3 C 22,7 C 6,8 UV-I 4,9 C 42 % 41 % 100 % 1023,5 hPa 0,0 l/m 11,2 km/h (2 Bft) 1,00 h 0,00 h 11,5 km/h (2 Bft)
09.05.2011 12:00 23,6 C 24,1 C 3,5 UV-I 4,9 C 41 % 38 % 100 % 1023,7 hPa 0,0 l/m 9,4 km/h (2 Bft) 1,00 h 0,00 h 9,9 km/h (2 Bft)
09.05.2011 13:00 23,9 C 25,7 C 5,5 UV-I 5,2 C 40 % 34 % 100 % 1023,6 hPa 0,0 l/m 8,0 km/h (2 Bft) 1,00 h 0,00 h 8,1 km/h (2 Bft)
09.05.2011 14:00 24,6 C 27,0 C 6,9 UV-I 5,5 C 40 % 31 % 100 % 1023,8 hPa 0,0 l/m 7,1 km/h (2 Bft) 1,00 h 0,00 h 7,5 km/h (2 Bft)
09.05.2011 15:00 25,3 C 27,5 C 7,1 UV-I 5,0 C 39 % 30 % 100 % 1024,1 hPa 0,0 l/m 6,3 km/h (2 Bft) 1,00 h 0,00 h 6,8 km/h (2 Bft)
09.05.2011 16:00 25,7 C 27,7 C 6,9 UV-I 4,7 C 39 % 31 % 100 % 1024,1 hPa 0,0 l/m 4,1 km/h (1 Bft) 1,00 h 0,00 h 5,3 km/h (1 Bft)
09.05.2011 17:00 25,4 C 25,4 C 2,8 UV-I 2,1 C 39 % 44 % 56 % 1023,9 hPa 0,0 l/m 5,0 km/h (1 Bft) 0,20 h 0,00 h 6,2 km/h (2 Bft)
09.05.2011 18:00 25,1 C 22,5 C 1,6 UV-I 0,4 C 41 % 57 % 12 % 1023,8 hPa 0,0 l/m 5,9 km/h (2 Bft) 0,00 h 0,00 h 6,9 km/h (2 Bft)
09.05.2011 19:00 24,8 C 20,8 C 0,9 UV-I 0,0 C 43 % 64 % 0 % 1023,8 hPa 0,0 l/m 5,4 km/h (1 Bft) 0,00 h 0,00 h 5,9 km/h (2 Bft)
09.05.2011 20:00 24,5 C 19,6 C 0,3 UV-I 0,0 C 44 % 70 % 0 % 1023,7 hPa 0,0 l/m 4,8 km/h (1 Bft) 0,00 h 0,00 h 5,6 km/h (1 Bft)
09.05.2011 21:00 24,2 C 18,9 C 0,1 UV-I 0,0 C 46 % 74 % 0 % 1024,2 hPa 0,0 l/m 4,3 km/h (1 Bft) 0,00 h 0,00 h 4,5 km/h (1 Bft)
09.05.2011 22:00 23,8 C 18,0 C 0,1 UV-I 0,0 C 48 % 75 % 0 % 1024,7 hPa 0,0 l/m 2,3 km/h (1 Bft) 0,00 h 0,00 h 2,3 km/h (1 Bft)
09.05.2011 23:00 23,6 C 17,0 C 0,1 UV-I 0,0 C 49 % 78 % 0 % 1024,9 hPa 0,0 l/m 0,6 km/h (0 Bft) 0,00 h 0,00 h 0,8 km/h (0 Bft)
10.05.2011 00:00 23,3 C 15,9 C 0,1 UV-I 0,0 C 49 % 80 % 0 % 1024,9 hPa 0,0 l/m 0,0 km/h (0 Bft) 0,00 h 0,00 h 0,3 km/h (0 Bft)
10.05.2011 01:00 23,1 C 15,2 C 0,1 UV-I 0,0 C 50 % 81 % 0 % 1024,7 hPa 0,0 l/m 0,1 km/h (0 Bft) 0,00 h 0,00 h 0,2 km/h (0 Bft)
10.05.2011 02:00 22,9 C 14,7 C 0,1 UV-I 0,0 C 50 % 83 % 0 % 1024,3 hPa 0,0 l/m 0,0 km/h (0 Bft) 0,00 h 0,00 h 0,0 km/h (0 Bft)
10.05.2011 03:00 22,8 C 15,2 C 0,1 UV-I 0,0 C 50 % 83 % 0 % 1024,0 hPa 0,0 l/m 0,2 km/h (0 Bft) 0,00 h 0,00 h 0,5 km/h (0 Bft)
10.05.2011 04:00 22,7 C 15,0 C 0,1 UV-I 0,0 C 50 % 81 % 0 % 1024,2 hPa 0,0 l/m 0,0 km/h (0 Bft) 0,00 h 0,00 h 0,0 km/h (0 Bft)
10.05.2011 05:00 22,6 C 14,3 C 0,1 UV-I 0,0 C 51 % 82 % 0 % 1024,2 hPa 0,0 l/m 0,0 km/h (0 Bft) 0,00 h 0,00 h 0,0 km/h (0 Bft)
10.05.2011 06:00 22,4 C 13,7 C 0,3 UV-I 0,0 C 51 % 83 % 0 % 1024,5 hPa 0,0 l/m 0,0 km/h (0 Bft) 0,00 h 0,00 h 0,0 km/h (0 Bft)
10.05.2011 07:00 22,4 C 14,3 C 0,7 UV-I 0,2 C 51 % 83 % 6 % 1024,5 hPa 0,0 l/m 0,3 km/h (0 Bft) 0,00 h 0,00 h 0,5 km/h (0 Bft)
10.05.2011 08:00 22,5 C 15,4 C 1,2 UV-I 1,3 C 51 % 82 % 36 % 1024,8 hPa 0,0 l/m 0,5 km/h (0 Bft) 0,00 h 0,00 h 1,0 km/h (0 Bft)
10.05.2011 09:00 22,6 C 16,4 C 2,3 UV-I 2,7 C 51 % 81 % 66 % 1025,7 hPa 0,0 l/m 2,9 km/h (1 Bft) 0,40 h 0,00 h 4,5 km/h (1 Bft)
10.05.2011 10:00 22,8 C 18,2 C 3,8 UV-I 4,5 C 51 % 76 % 99 % 1026,1 hPa 0,0 l/m 5,2 km/h (1 Bft) 1,00 h 0,00 h 6,1 km/h (2 Bft)
10.05.2011 11:00 23,1 C 20,0 C 5,4 UV-I 6,1 C 51 % 67 % 100 % 1026,7 hPa 0,0 l/m 9,5 km/h (2 Bft) 1,00 h 0,00 h 10,3 km/h (2 Bft)
10.05.2011 12:00 23,3 C 20,9 C 3,2 UV-I 3,0 C 51 % 61 % 79 % 1026,9 hPa 0,0 l/m 7,4 km/h (2 Bft) 0,23 h 0,00 h 8,2 km/h (2 Bft)
10.05.2011 13:00 23,7 C 22,6 C 5,8 UV-I 5,9 C 51 % 57 % 98 % 1026,6 hPa 0,0 l/m 6,1 km/h (2 Bft) 0,97 h 0,00 h 7,4 km/h (2 Bft)
10.05.2011 14:00 24,5 C 24,3 C 7,1 UV-I 6,8 C 49 % 51 % 100 % 1026,5 hPa 0,0 l/m 5,5 km/h (1 Bft) 1,00 h 0,00 h 5,8 km/h (2 Bft)
10.05.2011 15:00 25,6 C 25,3 C 7,4 UV-I 6,7 C 47 % 46 % 100 % 1026,5 hPa 0,0 l/m 4,2 km/h (1 Bft) 1,00 h 0,00 h 4,3 km/h (1 Bft)
10.05.2011 16:00 26,0 C 26,0 C 6,5 UV-I 5,8 C 45 % 42 % 100 % 1026,3 hPa 0,0 l/m 3,6 km/h (1 Bft) 1,00 h 0,00 h 4,4 km/h (1 Bft)
10.05.2011 17:00 25,7 C 25,9 C 4,0 UV-I 4,9 C 45 % 41 % 100 % 1025,3 hPa 0,0 l/m 2,7 km/h (1 Bft) 1,00 h 0,00 h 2,7 km/h (1 Bft)
10.05.2011 18:00 25,3 C 25,2 C 1,9 UV-I 1,9 C 46 % 42 % 52 % 1024,8 hPa 0,0 l/m 2,3 km/h (1 Bft) 0,27 h 0,00 h 2,9 km/h (1 Bft)
10.05.2011 19:00 25,0 C 24,6 C 1,0 UV-I 0,0 C 46 % 45 % 1 % 1024,0 hPa 0,0 l/m 1,6 km/h (1 Bft) 0,00 h 0,07 h 2,3 km/h (1 Bft)
10.05.2011 20:00 24,8 C 23,6 C 0,4 UV-I 0,0 C 47 % 50 % 0 % 1024,1 hPa 0,0 l/m 0,0 km/h (0 Bft) 0,00 h 0,00 h 0,0 km/h (0 Bft)
10.05.2011 21:00 24,6 C 21,8 C 0,1 UV-I 0,0 C 48 % 57 % 0 % 1024,3 hPa 0,0 l/m 2,5 km/h (1 Bft) 0,00 h 0,00 h 4,0 km/h (1 Bft)
10.05.2011 22:00 24,4 C 19,9 C 0,1 UV-I 0,0 C 48 % 61 % 0 % 1024,9 hPa 0,0 l/m 1,7 km/h (1 Bft) 0,00 h 0,00 h 1,5 km/h (1 Bft)
10.05.2011 23:00 24,1 C 18,7 C 0,1 UV-I 0,0 C 49 % 66 % 0 % 1024,4 hPa 0,0 l/m 0,2 km/h (0 Bft) 0,00 h 0,00 h 0,2 km/h (0 Bft)
11.05.2011 00:00 23,9 C 17,6 C 0,1 UV-I 0,0 C 50 % 72 % 0 % 1024,1 hPa 0,0 l/m 0,0 km/h (0 Bft) 0,00 h 0,00 h 0,3 km/h (0 Bft)
11.05.2011 01:00 23,6 C 16,7 C 0,1 UV-I 0,0 C 51 % 75 % 0 % 1023,8 hPa 0,0 l/m 0,3 km/h (0 Bft) 0,00 h 0,00 h 0,5 km/h (0 Bft)
11.05.2011 02:00 23,4 C 16,3 C 0,1 UV-I 0,0 C 51 % 77 % 0 % 1023,5 hPa 0,0 l/m 0,7 km/h (0 Bft) 0,00 h 0,00 h 1,3 km/h (1 Bft)
11.05.2011 03:00 23,2 C 16,3 C 0,1 UV-I 0,0 C 52 % 78 % 0 % 1023,2 hPa 0,0 l/m 1,6 km/h (1 Bft) 0,00 h 0,00 h 3,8 km/h (1 Bft)
11.05.2011 04:00 23,0 C 14,8 C 0,1 UV-I 0,0 C 52 % 81 % 0 % 1023,5 hPa 0,0 l/m 1,2 km/h (1 Bft) 0,00 h 0,00 h 1,2 km/h (1 Bft)
11.05.2011 05:00 22,8 C 13,7 C 0,1 UV-I 0,0 C 52 % 83 % 0 % 1023,7 hPa 0,0 l/m 0,7 km/h (0 Bft) 0,00 h 0,00 h 1,3 km/h (1 Bft)
11.05.2011 06:00 22,6 C 12,7 C 0,3 UV-I 0,0 C 52 % 84 % 0 % 1023,9 hPa 0,0 l/m 0,2 km/h (0 Bft) 0,00 h 0,00 h 0,4 km/h (0 Bft)
11.05.2011 07:00 22,4 C 12,9 C 0,8 UV-I 0,0 C 52 % 85 % 0 % 1024,5 hPa 0,0 l/m 0,7 km/h (0 Bft) 0,00 h 0,00 h 1,4 km/h (1 Bft)
11.05.2011 08:00 22,4 C 14,2 C 2,1 UV-I 3,1 C 52 % 80 % 60 % 1024,5 hPa 0,0 l/m 2,7 km/h (1 Bft) 0,53 h 0,00 h 4,0 km/h (1 Bft)
11.05.2011 09:00 22,5 C 16,3 C 6,7 UV-I 7,4 C 52 % 73 % 100 % 1024,7 hPa 0,0 l/m 2,5 km/h (1 Bft) 1,00 h 0,00 h 3,0 km/h (1 Bft)
11.05.2011 10:00 22,6 C 18,3 C 8,0 UV-I 7,3 C 51 % 64 % 100 % 1024,6 hPa 0,0 l/m 3,6 km/h (1 Bft) 1,00 h 0,00 h 4,1 km/h (1 Bft)
11.05.2011 11:00 22,8 C 20,1 C 6,8 UV-I 7,1 C 50 % 56 % 100 % 1024,5 hPa 0,0 l/m 3,9 km/h (1 Bft) 1,00 h 0,00 h 3,9 km/h (1 Bft)
11.05.2011 12:00 23,2 C 21,7 C 3,8 UV-I 6,8 C 50 % 49 % 100 % 1024,2 hPa 0,0 l/m 5,8 km/h (2 Bft) 1,00 h 0,00 h 7,4 km/h (2 Bft)
11.05.2011 13:00 23,6 C 22,5 C 5,4 UV-I 5,6 C 48 % 45 % 100 % 1023,9 hPa 0,0 l/m 6,0 km/h (2 Bft) 1,00 h 0,00 h 7,2 km/h (2 Bft)
11.05.2011 14:00 24,6 C 23,5 C 6,6 UV-I 5,7 C 46 % 40 % 100 % 1023,5 hPa 0,0 l/m 6,9 km/h (2 Bft) 1,00 h 0,00 h 7,6 km/h (2 Bft)
11.05.2011 15:00 25,4 C 23,5 C 6,3 UV-I 4,7 C 44 % 39 % 98 % 1023,3 hPa 0,0 l/m 5,6 km/h (1 Bft) 0,97 h 0,00 h 6,0 km/h (2 Bft)
11.05.2011 16:00 25,9 C 23,8 C 7,3 UV-I 5,1 C 43 % 38 % 98 % 1022,9 hPa 0,0 l/m 5,6 km/h (1 Bft) 0,97 h 0,00 h 6,3 km/h (2 Bft)
11.05.2011 17:00 26,5 C 23,7 C 3,9 UV-I 5,5 C 41 % 35 % 100 % 1022,8 hPa 0,0 l/m 5,1 km/h (1 Bft) 1,00 h 0,00 h 5,7 km/h (1 Bft)
11.05.2011 18:00 26,4 C 22,8 C 1,9 UV-I 2,2 C 40 % 36 % 57 % 1022,1 hPa 0,0 l/m 4,0 km/h (1 Bft) 0,40 h 0,00 h 5,6 km/h (1 Bft)
11.05.2011 19:00 25,7 C 21,8 C 1,1 UV-I 0,0 C 41 % 35 % 0 % 1021,2 hPa 0,0 l/m 3,1 km/h (1 Bft) 0,00 h 0,00 h 3,8 km/h (1 Bft)
11.05.2011 20:00 25,2 C 20,2 C 0,4 UV-I 0,0 C 42 % 34 % 0 % 1021,1 hPa 0,0 l/m 0,8 km/h (0 Bft) 0,00 h 0,00 h 1,7 km/h (1 Bft)
11.05.2011 21:00 24,7 C 18,5 C 0,1 UV-I 0,0 C 43 % 48 % 0 % 1021,2 hPa 0,0 l/m 3,0 km/h (1 Bft) 0,00 h 0,00 h 5,1 km/h (1 Bft)
11.05.2011 22:00 24,2 C 17,0 C 0,1 UV-I 0,0 C 44 % 56 % 0 % 1021,3 hPa 0,0 l/m 1,8 km/h (1 Bft) 0,00 h 0,00 h 1,8 km/h (1 Bft)
11.05.2011 23:00 23,8 C 15,7 C 0,1 UV-I 0,0 C 45 % 62 % 0 % 1021,3 hPa 0,0 l/m 0,6 km/h (0 Bft) 0,00 h 0,00 h 0,9 km/h (0 Bft)
12.05.2011 00:00 23,4 C 14,5 C 0,1 UV-I 0,0 C 46 % 66 % 0 % 1021,2 hPa 0,0 l/m 0,1 km/h (0 Bft) 0,00 h 0,00 h 0,3 km/h (0 Bft)
12.05.2011 01:00 23,2 C 13,5 C 0,1 UV-I 0,0 C 46 % 71 % 0 % 1020,9 hPa 0,0 l/m 0,0 km/h (0 Bft) 0,00 h 0,00 h 0,0 km/h (0 Bft)
12.05.2011 02:00 22,9 C 13,0 C 0,1 UV-I 0,0 C 47 % 74 % 0 % 1020,5 hPa 0,0 l/m 0,0 km/h (0 Bft) 0,00 h 0,00 h 0,0 km/h (0 Bft)
12.05.2011 03:00 22,8 C 12,8 C 0,1 UV-I 0,0 C 47 % 76 % 0 % 1019,6 hPa 0,0 l/m 0,0 km/h (0 Bft) 0,00 h 0,00 h 0,0 km/h (0 Bft)
12.05.2011 04:00 22,6 C 12,5 C 0,1 UV-I 0,0 C 48 % 77 % 0 % 1019,4 hPa 0,0 l/m 0,0 km/h (0 Bft) 0,00 h 0,00 h 0,0 km/h (0 Bft)
12.05.2011 05:00 22,4 C 12,3 C 0,1 UV-I 0,0 C 48 % 78 % 0 % 1019,2 hPa 0,0 l/m 0,0 km/h (0 Bft) 0,00 h 0,00 h 0,0 km/h (0 Bft)
12.05.2011 06:00 22,3 C 11,7 C 0,3 UV-I 0,0 C 48 % 80 % 0 % 1018,9 hPa 0,0 l/m 0,0 km/h (0 Bft) 0,00 h 0,00 h 0,0 km/h (0 Bft)
12.05.2011 07:00 22,2 C 12,1 C 0,7 UV-I 0,1 C 49 % 81 % 4 % 1019,0 hPa 0,0 l/m 1,0 km/h (0 Bft) 0,00 h 0,00 h 1,9 km/h (1 Bft)
12.05.2011 08:00 22,2 C 12,8 C 1,5 UV-I 1,2 C 49 % 80 % 32 % 1018,7 hPa 0,0 l/m 1,0 km/h (0 Bft) 0,20 h 0,00 h 1,2 km/h (1 Bft)
12.05.2011 09:00 22,3 C 14,9 C 3,2 UV-I 4,5 C 49 % 73 % 99 % 1018,6 hPa 0,0 l/m 4,3 km/h (1 Bft) 1,00 h 0,07 h 5,2 km/h (1 Bft)
12.05.2011 10:00 22,7 C 16,3 C 4,2 UV-I 4,9 C 48 % 65 % 99 % 1018,6 hPa 0,0 l/m 5,8 km/h (2 Bft) 1,00 h 0,00 h 7,6 km/h (2 Bft)
12.05.2011 11:00 22,9 C 17,7 C 4,7 UV-I 5,9 C 47 % 59 % 100 % 1018,6 hPa 0,0 l/m 5,4 km/h (1 Bft) 1,00 h 0,00 h 6,7 km/h (2 Bft)
12.05.2011 12:00 23,1 C 18,8 C 3,9 UV-I 5,0 C 47 % 53 % 99 % 1018,3 hPa 0,0 l/m 6,7 km/h (2 Bft) 0,97 h 0,00 h 7,2 km/h (2 Bft)
12.05.2011 13:00 23,3 C 19,6 C 4,6 UV-I 4,3 C 44 % 47 % 94 % 1018,0 hPa 0,0 l/m 6,6 km/h (2 Bft) 0,80 h 0,00 h 7,1 km/h (2 Bft)
12.05.2011 14:00 23,8 C 20,4 C 4,6 UV-I 4,2 C 41 % 43 % 95 % 1017,8 hPa 0,0 l/m 7,2 km/h (2 Bft) 0,90 h 0,00 h 8,7 km/h (2 Bft)
12.05.2011 15:00 24,0 C 19,4 C 2,7 UV-I 1,7 C 42 % 48 % 47 % 1018,0 hPa 0,0 l/m 7,1 km/h (2 Bft) 0,10 h 0,00 h 9,7 km/h (2 Bft)
12.05.2011 16:00 24,2 C 19,6 C 3,9 UV-I 3,2 C 41 % 45 % 82 % 1018,3 hPa 0,0 l/m 8,9 km/h (2 Bft) 0,50 h 0,00 h 11,6 km/h (2 Bft)
12.05.2011 17:00 24,1 C 18,3 C 1,8 UV-I 1,1 C 41 % 48 % 32 % 1018,7 hPa 0,0 l/m 9,1 km/h (2 Bft) 0,00 h 0,00 h 9,7 km/h (2 Bft)
12.05.2011 18:00 23,8 C 17,3 C 1,4 UV-I 0,8 C 40 % 50 % 22 % 1019,1 hPa 0,0 l/m 8,0 km/h (2 Bft) 0,00 h 0,00 h 11,2 km/h (2 Bft)
12.05.2011 19:00 23,3 C 16,9 C 1,2 UV-I 0,1 C 38 % 43 % 2 % 1019,2 hPa 0,0 l/m 9,0 km/h (2 Bft) 0,00 h 0,00 h 11,8 km/h (2 Bft)
12.05.2011 20:00 22,8 C 15,6 C 0,5 UV-I 0,0 C 38 % 46 % 0 % 1019,6 hPa 0,0 l/m 5,1 km/h (1 Bft) 0,00 h 0,00 h 6,7 km/h (2 Bft)
12.05.2011 21:00 22,5 C 14,1 C 0,1 UV-I 0,0 C 40 % 51 % 0 % 1020,4 hPa 0,0 l/m 0,7 km/h (0 Bft) 0,00 h 0,43 h 0,3 km/h (0 Bft)
12.05.2011 22:00 22,2 C 12,5 C 0,0 UV-I 0,0 C 41 % 57 % 0 % 1021,0 hPa 0,0 l/m 0,0 km/h (0 Bft) 0,00 h 0,77 h 0,0 km/h (0 Bft)
12.05.2011 23:00 21,9 C 11,3 C 0,1 UV-I 0,0 C 42 % 63 % 0 % 1021,2 hPa 0,0 l/m 0,0 km/h (0 Bft) 0,00 h 0,93 h 0,0 km/h (0 Bft)
13.05.2011 00:00 21,6 C 10,6 C 0,1 UV-I 0,0 C 43 % 67 % 0 % 1021,2 hPa 0,0 l/m 0,0 km/h (0 Bft) 0,00 h 0,43 h 0,2 km/h (0 Bft)
13.05.2011 01:00 21,4 C 10,4 C 0,1 UV-I 0,0 C 43 % 70 % 0 % 1021,4 hPa 0,0 l/m 0,0 km/h (0 Bft) 0,00 h 0,57 h 0,1 km/h (0 Bft)
13.05.2011 02:00 21,2 C 10,3 C 0,1 UV-I 0,0 C 44 % 72 % 0 % 1021,7 hPa 0,0 l/m 0,2 km/h (0 Bft) 0,00 h 0,60 h 0,4 km/h (0 Bft)
13.05.2011 03:00 21,0 C 9,8 C 0,1 UV-I 0,0 C 44 % 74 % 0 % 1021,7 hPa 0,0 l/m 0,0 km/h (0 Bft) 0,00 h 0,43 h 0,3 km/h (0 Bft)
13.05.2011 04:00 20,8 C 9,5 C 0,1 UV-I 0,0 C 44 % 75 % 0 % 1021,6 hPa 0,0 l/m 0,3 km/h (0 Bft) 0,00 h 0,40 h 0,9 km/h (0 Bft)
13.05.2011 05:00 20,5 C 9,1 C 0,1 UV-I 0,0 C 44 % 77 % 0 % 1022,0 hPa 0,0 l/m 0,7 km/h (0 Bft) 0,00 h 0,47 h 1,7 km/h (1 Bft)
13.05.2011 06:00 20,3 C 8,8 C 0,3 UV-I 0,0 C 45 % 79 % 0 % 1022,1 hPa 0,0 l/m 0,2 km/h (0 Bft) 0,00 h 0,60 h 0,5 km/h (0 Bft)
13.05.2011 07:00 20,3 C 9,6 C 1,0 UV-I 0,0 C 45 % 80 % 0 % 1022,4 hPa 0,0 l/m 0,7 km/h (0 Bft) 0,00 h 0,00 h 2,0 km/h (1 Bft)
13.05.2011 08:00 20,3 C 11,4 C 2,3 UV-I 2,8 C 46 % 78 % 55 % 1022,7 hPa 0,0 l/m 2,5 km/h (1 Bft) 0,50 h 0,00 h 3,8 km/h (1 Bft)
13.05.2011 09:00 20,4 C 14,0 C 7,5 UV-I 7,3 C 46 % 72 % 100 % 1022,8 hPa 0,0 l/m 2,1 km/h (1 Bft) 1,00 h 0,00 h 2,8 km/h (1 Bft)
13.05.2011 10:00 20,6 C 16,1 C 8,0 UV-I 7,4 C 46 % 64 % 100 % 1022,6 hPa 0,0 l/m 3,1 km/h (1 Bft) 1,00 h 0,00 h 4,2 km/h (1 Bft)
13.05.2011 11:00 20,8 C 17,7 C 6,4 UV-I 7,0 C 46 % 55 % 100 % 1022,7 hPa 0,0 l/m 2,6 km/h (1 Bft) 1,00 h 0,03 h 3,5 km/h (1 Bft)
13.05.2011 12:00 21,2 C 18,7 C 3,7 UV-I 6,1 C 45 % 48 % 100 % 1022,7 hPa 0,0 l/m 5,3 km/h (1 Bft) 1,00 h 0,00 h 7,0 km/h (2 Bft)
13.05.2011 13:00 21,9 C 19,2 C 3,9 UV-I 4,5 C 43 % 43 % 96 % 1022,4 hPa 0,0 l/m 7,1 km/h (2 Bft) 0,90 h 0,00 h 8,5 km/h (2 Bft)
13.05.2011 14:00 22,5 C 19,5 C 3,9 UV-I 3,7 C 42 % 43 % 95 % 1021,9 hPa 0,0 l/m 3,9 km/h (1 Bft) 0,90 h 0,00 h 4,8 km/h (1 Bft)
13.05.2011 15:00 23,3 C 20,6 C 6,3 UV-I 5,7 C 41 % 39 % 100 % 1021,6 hPa 0,0 l/m 3,3 km/h (1 Bft) 1,00 h 0,00 h 4,1 km/h (1 Bft)
13.05.2011 16:00 24,3 C 20,9 C 6,2 UV-I 5,8 C 39 % 38 % 100 % 1021,2 hPa 0,0 l/m 3,6 km/h (1 Bft) 1,00 h 0,00 h 5,0 km/h (1 Bft)
13.05.2011 17:00 24,5 C 20,6 C 2,8 UV-I 3,7 C 38 % 36 % 96 % 1020,6 hPa 0,0 l/m 3,3 km/h (1 Bft) 0,90 h 0,00 h 3,5 km/h (1 Bft)
13.05.2011 18:00 24,4 C 20,4 C 1,9 UV-I 2,2 C 38 % 36 % 59 % 1019,8 hPa 0,0 l/m 3,5 km/h (1 Bft) 0,23 h 0,00 h 4,2 km/h (1 Bft)
13.05.2011 19:00 24,1 C 19,8 C 0,9 UV-I 0,3 C 38 % 37 % 10 % 1019,3 hPa 0,0 l/m 1,1 km/h (1 Bft) 0,00 h 0,00 h 1,1 km/h (1 Bft)
13.05.2011 20:00 23,7 C 18,9 C 0,4 UV-I 0,0 C 39 % 41 % 0 % 1018,9 hPa 0,0 l/m 0,0 km/h (0 Bft) 0,00 h 0,00 h 0,0 km/h (0 Bft)
13.05.2011 21:00 23,2 C 16,8 C 0,1 UV-I 0,0 C 40 % 49 % 0 % 1018,5 hPa 0,0 l/m 0,0 km/h (0 Bft) 0,00 h 0,00 h 0,0 km/h (0 Bft)
13.05.2011 22:00 22,6 C 14,5 C 0,1 UV-I 0,0 C 42 % 57 % 0 % 1018,2 hPa 0,0 l/m 0,0 km/h (0 Bft) 0,00 h 0,00 h 0,0 km/h (0 Bft)
13.05.2011 23:00 22,2 C 13,1 C 0,1 UV-I 0,0 C 43 % 64 % 0 % 1017,7 hPa 0,0 l/m 0,0 km/h (0 Bft) 0,00 h 0,00 h 0,0 km/h (0 Bft)
14.05.2011 00:00 21,9 C 11,9 C 0,1 UV-I 0,0 C 43 % 69 % 0 % 1017,3 hPa 0,0 l/m 0,0 km/h (0 Bft) 0,00 h 0,00 h 0,0 km/h (0 Bft)
14.05.2011 01:00 21,6 C 10,8 C 0,1 UV-I 0,0 C 44 % 74 % 0 % 1016,6 hPa 0,0 l/m 0,0 km/h (0 Bft) 0,00 h 0,00 h 0,0 km/h (0 Bft)
14.05.2011 02:00 21,3 C 9,9 C 0,1 UV-I 0,0 C 44 % 76 % 0 % 1016,4 hPa 0,0 l/m 0,0 km/h (0 Bft) 0,00 h 0,10 h 0,1 km/h (0 Bft)
14.05.2011 03:00 21,1 C 9,3 C 0,1 UV-I 0,0 C 45 % 79 % 0 % 1015,8 hPa 0,0 l/m 0,0 km/h (0 Bft) 0,00 h 0,00 h 0,0 km/h (0 Bft)
14.05.2011 04:00 20,9 C 9,0 C 0,1 UV-I 0,0 C 45 % 81 % 0 % 1015,5 hPa 0,0 l/m 0,1 km/h (0 Bft) 0,00 h 0,00 h 0,3 km/h (0 Bft)
14.05.2011 05:00 20,8 C 9,3 C 0,1 UV-I 0,0 C 46 % 81 % 0 % 1015,0 hPa 0,0 l/m 0,0 km/h (0 Bft) 0,00 h 0,03 h 0,0 km/h (0 Bft)
14.05.2011 06:00 20,6 C 9,6 C 0,3 UV-I 0,0 C 46 % 82 % 0 % 1015,0 hPa 0,0 l/m 0,0 km/h (0 Bft) 0,00 h 0,00 h 0,2 km/h (0 Bft)
14.05.2011 07:00 20,6 C 10,2 C 0,9 UV-I 0,1 C 46 % 82 % 3 % 1014,9 hPa 0,0 l/m 0,5 km/h (0 Bft) 0,00 h 0,00 h 1,1 km/h (1 Bft)
14.05.2011 08:00 20,6 C 11,8 C 2,1 UV-I 2,6 C 47 % 80 % 58 % 1015,1 hPa 0,0 l/m 2,4 km/h (1 Bft) 0,50 h 0,00 h 3,8 km/h (1 Bft)
14.05.2011 09:00 20,8 C 14,4 C 4,6 UV-I 5,4 C 46 % 66 % 100 % 1015,3 hPa 0,0 l/m 5,1 km/h (1 Bft) 1,00 h 0,00 h 7,0 km/h (2 Bft)
14.05.2011 10:00 21,1 C 15,3 C 3,1 UV-I 3,3 C 45 % 59 % 86 % 1015,7 hPa 0,0 l/m 5,3 km/h (1 Bft) 0,60 h 0,00 h 7,4 km/h (2 Bft)
14.05.2011 11:00 21,4 C 15,6 C 2,8 UV-I 2,3 C 45 % 60 % 65 % 1016,0 hPa 0,0 l/m 6,2 km/h (2 Bft) 0,00 h 0,00 h 8,2 km/h (2 Bft)
14.05.2011 12:00 21,6 C 15,8 C 2,6 UV-I 2,0 C 44 % 62 % 58 % 1016,3 hPa 0,0 l/m 5,8 km/h (2 Bft) 0,00 h 0,00 h 7,2 km/h (2 Bft)
14.05.2011 13:00 21,7 C 14,7 C 2,3 UV-I 1,1 C 45 % 72 % 32 % 1016,3 hPa 0,2 l/m 3,2 km/h (1 Bft) 0,07 h 0,43 h 3,9 km/h (1 Bft)
14.05.2011 14:00 22,2 C 16,6 C 5,0 UV-I 4,9 C 46 % 60 % 100 % 1016,5 hPa 0,0 l/m 7,0 km/h (2 Bft) 1,00 h 0,00 h 10,7 km/h (2 Bft)
14.05.2011 15:00 23,4 C 18,4 C 6,6 UV-I 4,6 C 43 % 42 % 100 % 1017,0 hPa 0,0 l/m 10,2 km/h (2 Bft) 1,00 h 0,00 h 12,5 km/h (3 Bft)
14.05.2011 16:00 24,4 C 19,0 C 8,4 UV-I 4,9 C 39 % 36 % 100 % 1017,4 hPa 0,0 l/m 9,7 km/h (2 Bft) 1,00 h 0,00 h 11,4 km/h (2 Bft)
14.05.2011 17:00 25,1 C 18,5 C 3,8 UV-I 4,8 C 37 % 34 % 100 % 1017,6 hPa 0,0 l/m 8,7 km/h (2 Bft) 1,00 h 0,00 h 10,3 km/h (2 Bft)
14.05.2011 18:00 24,9 C 17,0 C 1,2 UV-I 0,9 C 37 % 37 % 26 % 1017,8 hPa 0,0 l/m 8,1 km/h (2 Bft) 0,13 h 0,00 h 9,2 km/h (2 Bft)
14.05.2011 19:00 24,0 C 16,0 C 0,7 UV-I 0,0 C 38 % 40 % 0 % 1017,8 hPa 0,0 l/m 7,6 km/h (2 Bft) 0,00 h 0,00 h 9,1 km/h (2 Bft)
14.05.2011 20:00 23,3 C 14,6 C 0,1 UV-I 0,0 C 38 % 43 % 0 % 1017,9 hPa 0,0 l/m 5,2 km/h (1 Bft) 0,00 h 0,03 h 5,8 km/h (2 Bft)
14.05.2011 21:00 22,5 C 13,1 C 0,0 UV-I 0,0 C 39 % 50 % 0 % 1018,2 hPa 0,0 l/m 1,4 km/h (1 Bft) 0,00 h 0,60 h 0,7 km/h (0 Bft)
14.05.2011 22:00 22,0 C 12,1 C 0,0 UV-I 0,0 C 40 % 57 % 0 % 1018,8 hPa 0,0 l/m 0,5 km/h (0 Bft) 0,00 h 1,00 h 1,5 km/h (1 Bft)
14.05.2011 23:00 21,7 C 11,5 C 0,0 UV-I 0,0 C 41 % 65 % 0 % 1018,8 hPa 0,0 l/m 1,6 km/h (1 Bft) 0,00 h 1,00 h 1,4 km/h (1 Bft)
15.05.2011 00:00 21,4 C 10,2 C 0,0 UV-I 0,0 C 42 % 70 % 0 % 1018,9 hPa 0,0 l/m 0,0 km/h (0 Bft) 0,00 h 1,00 h 0,0 km/h (0 Bft)
15.05.2011 01:00 21,1 C 9,2 C 0,0 UV-I 0,0 C 43 % 76 % 0 % 1019,0 hPa 0,0 l/m 0,9 km/h (0 Bft) 0,00 h 1,00 h 1,4 km/h (1 Bft)
15.05.2011 02:00 20,8 C 9,9 C 0,0 UV-I 0,0 C 43 % 75 % 0 % 1019,1 hPa 0,0 l/m 1,3 km/h (1 Bft) 0,00 h 1,00 h 1,5 km/h (1 Bft)
15.05.2011 03:00 20,6 C 9,3 C 0,0 UV-I 0,0 C 44 % 77 % 0 % 1018,9 hPa 0,0 l/m 0,4 km/h (0 Bft) 0,00 h 1,00 h 1,0 km/h (0 Bft)
15.05.2011 04:00 20,4 C 9,5 C 0,0 UV-I 0,0 C 44 % 80 % 0 % 1019,1 hPa 0,0 l/m 1,7 km/h (1 Bft) 0,00 h 1,00 h 2,1 km/h (1 Bft)
15.05.2011 05:00 20,3 C 9,6 C 0,1 UV-I 0,0 C 45 % 81 % 0 % 1019,2 hPa 0,0 l/m 1,3 km/h (1 Bft) 0,00 h 0,53 h 3,1 km/h (1 Bft)
15.05.2011 06:00 20,1 C 9,3 C 0,4 UV-I 0,0 C 46 % 82 % 0 % 1019,7 hPa 0,0 l/m 0,5 km/h (0 Bft) 0,00 h 0,00 h 0,8 km/h (0 Bft)
15.05.2011 07:00 20,2 C 10,1 C 0,6 UV-I 0,3 C 46 % 81 % 8 % 1020,2 hPa 0,1 l/m 2,0 km/h (1 Bft) 0,00 h 0,00 h 3,3 km/h (1 Bft)
15.05.2011 08:00 20,2 C 10,9 C 1,8 UV-I 2,3 C 46 % 81 % 55 % 1020,8 hPa 0,0 l/m 4,3 km/h (1 Bft) 0,43 h 0,00 h 6,7 km/h (2 Bft)
15.05.2011 09:00 20,3 C 12,1 C 3,7 UV-I 3,5 C 46 % 76 % 84 % 1020,9 hPa 0,0 l/m 5,8 km/h (2 Bft) 0,67 h 0,00 h 7,5 km/h (2 Bft)
15.05.2011 10:00 20,5 C 13,1 C 2,4 UV-I 3,1 C 46 % 69 % 76 % 1020,9 hPa 0,0 l/m 5,0 km/h (1 Bft) 0,43 h 0,00 h 6,0 km/h (2 Bft)
15.05.2011 11:00 20,7 C 13,4 C 2,8 UV-I 2,9 C 45 % 67 % 65 % 1021,3 hPa 0,0 l/m 6,1 km/h (2 Bft) 0,53 h 0,00 h 8,1 km/h (2 Bft)
15.05.2011 12:00 21,0 C 15,0 C 3,6 UV-I 5,7 C 44 % 60 % 100 % 1021,6 hPa 0,0 l/m 8,3 km/h (2 Bft) 1,00 h 0,00 h 7,9 km/h (2 Bft)
15.05.2011 13:00 21,3 C 15,3 C 2,7 UV-I 2,7 C 44 % 58 % 67 % 1021,8 hPa 0,0 l/m 6,4 km/h (2 Bft) 0,43 h 0,00 h 8,2 km/h (2 Bft)
15.05.2011 14:00 22,0 C 16,6 C 4,4 UV-I 4,3 C 43 % 52 % 82 % 1022,0 hPa 0,2 l/m 9,2 km/h (2 Bft) 0,80 h 0,00 h 8,9 km/h (2 Bft)
15.05.2011 15:00 22,5 C 15,5 C 3,0 UV-I 1,7 C 42 % 60 % 43 % 1022,3 hPa 0,2 l/m 7,6 km/h (2 Bft) 0,27 h 0,00 h 8,9 km/h (2 Bft)
15.05.2011 16:00 22,6 C 15,2 C 3,4 UV-I 1,7 C 42 % 61 % 49 % 1022,3 hPa 0,0 l/m 5,5 km/h (1 Bft) 0,23 h 0,00 h 6,8 km/h (2 Bft)
15.05.2011 17:00 22,7 C 15,9 C 1,9 UV-I 1,3 C 42 % 53 % 36 % 1022,3 hPa 0,0 l/m 6,1 km/h (2 Bft) 0,00 h 0,00 h 7,0 km/h (2 Bft)
15.05.2011 18:00 22,5 C 15,7 C 1,8 UV-I 1,0 C 41 % 53 % 28 % 1022,8 hPa 0,0 l/m 7,3 km/h (2 Bft) 0,00 h 0,00 h 8,5 km/h (2 Bft)
15.05.2011 19:00 22,2 C 14,7 C 0,9 UV-I 0,1 C 42 % 56 % 2 % 1023,1 hPa 0,0 l/m 7,7 km/h (2 Bft) 0,00 h 0,00 h 10,3 km/h (2 Bft)
15.05.2011 20:00 21,7 C 13,7 C 0,4 UV-I 0,0 C 42 % 56 % 0 % 1023,3 hPa 0,0 l/m 5,4 km/h (1 Bft) 0,00 h 0,00 h 6,0 km/h (2 Bft)
15.05.2011 21:00 21,2 C 12,9 C 0,1 UV-I 0,0 C 43 % 57 % 0 % 1023,8 hPa 0,0 l/m 4,6 km/h (1 Bft) 0,00 h 0,00 h 6,1 km/h (2 Bft)
15.05.2011 22:00 20,9 C 12,1 C 0,1 UV-I 0,0 C 43 % 61 % 0 % 1024,4 hPa 0,0 l/m 1,0 km/h (0 Bft) 0,00 h 0,00 h 0,6 km/h (0 Bft)
15.05.2011 23:00 20,6 C 11,2 C 0,1 UV-I 0,0 C 44 % 65 % 0 % 1024,4 hPa 0,0 l/m 0,1 km/h (0 Bft) 0,00 h 0,00 h 0,2 km/h (0 Bft)
Min-Datum _ 15.05.11 13.05.11 09.05.11 09.05.11 14.05.11 09.05.11 09.05.11 14.05.11 - 09.05.11 - - 09.05.11
_ Min-Zeit 06:26 05:58 01:00 00:00 18:04 15:00 00:00 05:26 - 00:25 - - 00:15
Minimum _ 20,1 C 8,8 C 0,0 UV-I 0,0 C 36 % 28 % 0 % 1014,8 hPa - 0,0 km/h (0 Bft) - - 0,0 km/h (0 Bft)
Max-Datum _ 11.05.11 09.05.11 14.05.11 13.05.11 10.05.11 11.05.11 09.05.11 10.05.11 14.05.11 09.05.11 09.05.11 10.05.11 14.05.11
_ Max-Zeit 17:52 14:58 16:28 11:30 10:44 06:24 10:24 12:26 13:18 08:20 09:52 19:12 15:56
Maximum _ 26,7 C 27,9 C 9,2 UV-I 8,4 C 52 % 85 % 100 % 1027,0 hPa 0,2 l/m 15,3 km/h
N-NO (3 Bft)
0,03 h 0,03 h 38,9 km/h
SW (6 Bft)
Durchschnitt _ 22,8 C 16,5 C 2,0 UV-I 1,8 C 45 % 60 % 36 % 1021,4 hPa #0,7 l/m 3,5 km/h (1 Bft) #51:42 h #14:40 h 4,3 km/h (1 Bft)
© 2012 W. Hausmann